createdAt,value
2022-12-18T00:00:45.464Z,-1.64
2022-12-18T00:06:10.022Z,2.01
2022-12-18T00:11:20.660Z,3.93
2022-12-18T00:16:27.351Z,5.04
2022-12-18T00:21:32.380Z,3.03
2022-12-18T00:26:37.727Z,0.66
2022-12-18T00:31:43.364Z,-0.89
2022-12-18T00:36:49.279Z,-1.99
2022-12-18T00:42:11.246Z,-2.88
2022-12-18T00:47:14.440Z,-2.12
2022-12-18T00:52:17.551Z,1.72
2022-12-18T00:57:20.757Z,3.87
2022-12-18T01:02:24.045Z,3.71
2022-12-18T01:07:27.374Z,0.83
2022-12-18T01:12:30.796Z,-0.86
2022-12-18T01:17:34.922Z,-1.92
2022-12-18T01:22:38.330Z,-2.82
2022-12-18T01:27:41.547Z,-3.54
2022-12-18T01:32:44.748Z,-3.96
2022-12-18T01:37:48.083Z,-4.20
2022-12-18T01:42:55.054Z,-4.39
2022-12-18T01:48:09.995Z,-2.91
2022-12-18T01:53:24.531Z,1.30
2022-12-18T01:59:01.219Z,3.48
2022-12-18T02:04:36.792Z,4.13
2022-12-18T02:09:56.377Z,1.27
2022-12-18T02:15:17.790Z,-1.00
2022-12-18T02:20:43.332Z,-2.39
2022-12-18T02:26:15.321Z,-3.17
2022-12-18T02:31:28.400Z,-3.71
2022-12-18T02:36:35.003Z,-4.12
2022-12-18T02:41:39.661Z,-1.78
2022-12-18T02:46:49.959Z,1.90
2022-12-18T02:52:14.266Z,3.45
2022-12-18T02:57:17.412Z,1.29
2022-12-18T03:02:57.620Z,-0.69
2022-12-18T03:08:09.473Z,-2.11
2022-12-18T03:13:25.774Z,-3.06
2022-12-18T03:18:43.930Z,-3.81
2022-12-18T03:23:52.726Z,-4.41
2022-12-18T03:29:05.915Z,-3.55
2022-12-18T03:34:22.746Z,0.68
2022-12-18T03:39:26.943Z,3.10
2022-12-18T03:45:09.509Z,4.40
2022-12-18T03:50:37.186Z,4.81
2022-12-18T03:55:42.174Z,1.84
2022-12-18T04:00:46.168Z,-0.28
2022-12-18T04:05:53.625Z,-1.65
2022-12-18T04:10:56.988Z,-2.66
2022-12-18T04:16:00.336Z,-3.46
2022-12-18T04:21:04.629Z,-4.00
2022-12-18T04:26:07.840Z,-4.45
2022-12-18T04:31:11.186Z,-3.28
2022-12-18T04:36:14.582Z,0.93
2022-12-18T04:41:17.775Z,3.18
2022-12-18T04:46:20.828Z,4.36
2022-12-18T04:51:26.677Z,5.02
2022-12-18T04:56:33.038Z,2.71
2022-12-18T05:01:36.205Z,0.23
2022-12-18T05:06:39.550Z,-1.41
2022-12-18T05:11:42.657Z,-2.52
2022-12-18T05:16:45.762Z,-3.28
2022-12-18T05:21:48.973Z,-3.77
2022-12-18T05:26:52.278Z,-4.09
2022-12-18T05:31:55.372Z,-4.29
2022-12-18T05:36:58.494Z,-4.40
2022-12-18T05:42:01.610Z,-4.47
2022-12-18T05:47:05.408Z,-4.48
2022-12-18T05:52:08.839Z,-4.47
2022-12-18T05:57:11.967Z,-4.44
2022-12-18T06:02:15.346Z,-4.41
2022-12-18T06:07:18.769Z,-3.31
2022-12-18T06:12:22.392Z,1.03
2022-12-18T06:17:30.774Z,3.86
2022-12-18T06:22:34.040Z,4.23
2022-12-18T06:27:37.239Z,1.62
2022-12-18T06:32:40.447Z,-0.11
2022-12-18T06:37:43.551Z,-1.28
2022-12-18T06:42:46.787Z,-2.05
2022-12-18T06:47:49.975Z,-2.59
2022-12-18T06:52:53.082Z,-2.98
2022-12-18T06:57:56.175Z,-3.29
2022-12-18T07:02:59.358Z,-3.50
2022-12-18T07:08:02.601Z,-3.67
2022-12-18T07:13:05.700Z,-2.39
2022-12-18T07:18:08.830Z,1.65
2022-12-18T07:23:12.014Z,3.97
2022-12-18T07:28:17.668Z,3.27
2022-12-18T07:33:21.095Z,0.71
2022-12-18T07:38:24.123Z,-0.89
2022-12-18T07:43:27.206Z,-1.89
2022-12-18T07:48:30.759Z,-2.50
2022-12-18T07:53:36.423Z,-2.92
2022-12-18T07:58:40.107Z,-3.24
2022-12-18T08:03:43.345Z,-3.43
2022-12-18T08:08:46.544Z,-2.31
2022-12-18T08:13:50.260Z,2.00
2022-12-18T08:18:55.197Z,4.58
2022-12-18T08:24:01.746Z,4.71
2022-12-18T08:29:04.894Z,2.10
2022-12-18T08:34:09.849Z,0.44
2022-12-18T08:39:13.265Z,-0.77
2022-12-18T08:44:35.204Z,-1.00
2022-12-18T08:49:38.406Z,2.65
2022-12-18T08:54:41.924Z,5.12
2022-12-18T08:59:45.064Z,4.99
2022-12-18T09:04:55.403Z,2.29
2022-12-18T09:10:00.354Z,0.67
2022-12-18T09:15:04.437Z,0.12
2022-12-18T09:20:10.022Z,3.30
2022-12-18T09:25:13.171Z,4.21
2022-12-18T09:30:16.474Z,1.63
2022-12-18T09:35:19.580Z,0.04
2022-12-18T09:40:30.159Z,-0.81
2022-12-18T09:45:51.257Z,-1.25
2022-12-18T09:51:02.278Z,-1.53
2022-12-18T09:56:07.638Z,-0.19
2022-12-18T10:01:19.449Z,3.57
2022-12-18T10:06:44.158Z,5.59
2022-12-18T10:12:27.974Z,4.60
2022-12-18T10:17:52.638Z,2.09
2022-12-18T10:23:04.719Z,0.59
2022-12-18T10:28:17.667Z,-0.26
2022-12-18T10:33:26.021Z,-0.77
2022-12-18T10:38:33.035Z,-1.13
2022-12-18T10:43:38.405Z,-1.47
2022-12-18T10:48:48.585Z,-1.84
2022-12-18T10:54:04.363Z,-1.99
2022-12-18T10:59:14.336Z,-1.19
2022-12-18T11:04:24.509Z,2.78
2022-12-18T11:09:32.888Z,5.24
2022-12-18T11:14:51.146Z,5.13
2022-12-18T11:20:00.530Z,2.54
2022-12-18T11:25:34.908Z,0.95
2022-12-18T11:30:39.103Z,-0.24
2022-12-18T11:35:54.085Z,-0.97
2022-12-18T11:41:12.344Z,-0.20
2022-12-18T11:46:27.891Z,3.52
2022-12-18T11:51:53.273Z,5.37
2022-12-18T11:57:36.109Z,4.00
2022-12-18T12:03:23.870Z,1.42
2022-12-18T12:09:01.278Z,-0.05
2022-12-18T12:14:28.982Z,-0.84
2022-12-18T12:19:53.495Z,2.48
2022-12-18T12:25:36.711Z,4.65
2022-12-18T12:30:48.721Z,2.35
2022-12-18T12:36:23.471Z,0.66
2022-12-18T12:41:51.898Z,-0.41
2022-12-18T12:47:06.033Z,-1.08
2022-12-18T12:52:18.623Z,-1.43
2022-12-18T12:58:06.729Z,-1.74
2022-12-18T13:03:53.552Z,-2.05
2022-12-18T13:09:01.443Z,-2.33
2022-12-18T13:14:04.595Z,-2.47
2022-12-18T13:19:26.490Z,-2.57
2022-12-18T13:24:33.630Z,-2.67
2022-12-18T13:29:46.486Z,-1.53
2022-12-18T13:35:19.922Z,2.79
2022-12-18T13:40:46.284Z,4.90
2022-12-18T13:46:03.265Z,3.21
2022-12-18T13:51:17.736Z,0.83
2022-12-18T13:56:48.455Z,-0.58
2022-12-18T14:02:01.987Z,-1.64
2022-12-18T14:07:18.010Z,-2.39
2022-12-18T14:12:52.529Z,-2.44
2022-12-18T14:18:04.579Z,1.19
2022-12-18T14:23:38.391Z,3.61
2022-12-18T14:28:45.738Z,3.26
2022-12-18T14:33:49.148Z,0.48
2022-12-18T14:38:58.227Z,-1.22
2022-12-18T14:44:12.459Z,-2.21
2022-12-18T14:49:32.042Z,-2.92
2022-12-18T14:54:38.640Z,-2.83
2022-12-18T14:59:41.965Z,1.41
2022-12-18T15:04:46.396Z,3.70
2022-12-18T15:10:24.926Z,3.59
2022-12-18T15:15:34.388Z,0.48
2022-12-18T15:20:43.838Z,-1.26
2022-12-18T15:25:49.734Z,-2.30
2022-12-18T15:31:10.950Z,-2.90
2022-12-18T15:36:17.594Z,-3.39
2022-12-18T15:41:25.959Z,-3.72
2022-12-18T15:46:29.172Z,-3.69
2022-12-18T15:51:38.603Z,-0.24
2022-12-18T15:57:00.288Z,2.86
2022-12-18T16:02:03.564Z,4.23
2022-12-18T16:07:17.579Z,2.41
2022-12-18T16:12:26.868Z,-0.25
2022-12-18T16:17:32.990Z,-1.83
2022-12-18T16:22:36.480Z,-2.77
2022-12-18T16:27:39.789Z,-2.38
2022-12-18T16:32:44.399Z,1.46
2022-12-18T16:37:48.049Z,3.89
2022-12-18T16:42:51.283Z,3.61
2022-12-18T16:47:54.399Z,0.68
2022-12-18T16:52:57.668Z,-1.14
2022-12-18T16:58:01.117Z,-2.24
2022-12-18T17:03:04.559Z,-2.97
2022-12-18T17:08:08.034Z,-3.42
2022-12-18T17:13:11.329Z,-3.22
2022-12-18T17:18:14.539Z,0.37
2022-12-18T17:23:17.745Z,2.94
2022-12-18T17:28:22.226Z,3.02
2022-12-18T17:33:26.004Z,0.08
2022-12-18T17:38:29.143Z,-1.83
2022-12-18T17:43:36.121Z,-2.92
2022-12-18T17:48:40.417Z,-1.87
2022-12-18T17:53:44.317Z,1.90
2022-12-18T17:58:50.551Z,3.69
2022-12-18T18:03:57.929Z,2.68
2022-12-18T18:09:01.264Z,-0.08
2022-12-18T18:14:19.843Z,-1.72
2022-12-18T18:19:25.506Z,-2.70
2022-12-18T18:24:28.727Z,-3.30
2022-12-18T18:29:32.026Z,-3.69
2022-12-18T18:34:35.871Z,-3.93
2022-12-18T18:39:47.023Z,-4.13
2022-12-18T18:44:50.246Z,-4.33
2022-12-18T18:49:53.460Z,-4.49
2022-12-18T18:55:12.189Z,-4.61
2022-12-18T19:00:17.474Z,-2.05
2022-12-18T19:05:20.594Z,1.72
2022-12-18T19:10:23.935Z,3.63
2022-12-18T19:15:27.012Z,4.78
2022-12-18T19:20:30.528Z,4.34
2022-12-18T19:25:41.628Z,1.37
2022-12-18T19:30:45.858Z,-0.69
2022-12-18T19:35:49.165Z,-2.08
2022-12-18T19:40:52.779Z,-3.12
2022-12-18T19:45:56.489Z,-3.95
2022-12-18T19:51:24.900Z,-4.51
2022-12-18T19:56:35.511Z,-1.64
2022-12-18T20:01:38.771Z,1.61
2022-12-18T20:06:53.505Z,3.30
2022-12-18T20:11:56.784Z,4.32
2022-12-18T20:17:00.591Z,4.90
2022-12-18T20:22:04.085Z,4.76
2022-12-18T20:27:14.049Z,1.60
2022-12-18T20:32:19.469Z,-1.00
2022-12-18T20:37:23.064Z,-2.56
2022-12-18T20:42:27.329Z,-3.71
2022-12-18T20:47:30.506Z,-4.47
2022-12-18T20:52:34.124Z,-1.79
2022-12-18T20:57:39.285Z,1.45
2022-12-18T21:02:42.606Z,3.03
2022-12-18T21:07:46.240Z,4.01
2022-12-18T21:12:58.719Z,4.71
2022-12-18T21:18:05.123Z,4.99
2022-12-18T21:23:16.440Z,2.27
2022-12-18T21:28:20.543Z,-0.50
2022-12-18T21:33:23.954Z,-2.24
2022-12-18T21:38:28.700Z,-3.56
2022-12-18T21:44:04.373Z,-4.46
2022-12-18T21:49:09.847Z,-1.56
2022-12-18T21:54:13.047Z,1.42
2022-12-18T21:59:25.874Z,2.78
2022-12-18T22:04:30.054Z,3.65
2022-12-18T22:09:34.517Z,4.30
2022-12-18T22:14:37.882Z,4.84
2022-12-18T22:19:43.139Z,4.62
2022-12-18T22:24:46.627Z,1.34
2022-12-18T22:30:05.217Z,-1.28
2022-12-18T22:35:15.408Z,-3.13
2022-12-18T22:40:25.334Z,-4.39
2022-12-18T22:45:29.056Z,-2.51
2022-12-18T22:50:33.905Z,0.74
2022-12-18T22:55:37.111Z,2.56
2022-12-18T23:00:40.942Z,3.63
2022-12-18T23:05:44.159Z,4.30
2022-12-18T23:10:47.348Z,4.82
2022-12-18T23:15:50.498Z,5.13
2022-12-18T23:20:53.667Z,2.86
2022-12-18T23:26:08.113Z,-0.41
2022-12-18T23:31:24.344Z,-2.55
2022-12-18T23:36:28.996Z,-4.06
2022-12-18T23:41:34.259Z,-3.64
2022-12-18T23:46:37.980Z,0.03
2022-12-18T23:51:41.179Z,2.13
2022-12-18T23:56:46.340Z,3.29
